Wilton, North Dakota
Current Conditions -  °F | °C
As of 8:52 AM on Friday 28 Nov 2014 (Local Time) from KBIS Reporting Station
Scattered Clouds Scattered Clouds  
Wind Chill: -2°   Ceiling: Unl
Heat Index: 11°   Visibility: 10mi
Dew Point:   Wind: 9mph
Humidity: 88%   Direction: 70°ENE
Pressure: 29.78"   Gusts: NA
Location:  47.16°N, 100.78°W
Report Text: KBIS 281452Z 07008KT 10SM SCT110 M12/M13 A2978 RMK AO2 SLP120 T11171133 56005
Loading
Personal Weather Stations






























Interactive Weather Map New forecast layout! Learn more

10-Day Weather Forecast

Advertisements
Track Severe Weather on mobile